createdAt,value
2018-03-06T00:00:19.713Z,225.73
2018-03-06T00:02:47.239Z,195.77
2018-03-06T00:05:14.786Z,202.33
2018-03-06T00:07:42.312Z,185.77
2018-03-06T00:10:09.863Z,222.63
2018-03-06T00:12:37.386Z,201.40
2018-03-06T00:15:05.691Z,210.90
2018-03-06T00:17:33.220Z,200.63
2018-03-06T00:20:01.523Z,214.20
2018-03-06T00:22:29.047Z,203.90
2018-03-06T00:24:57.355Z,210.27
2018-03-06T00:27:24.885Z,214.63
2018-03-06T00:29:53.191Z,202.53
2018-03-06T00:32:20.732Z,193.83
2018-03-06T00:34:49.254Z,216.77
2018-03-06T00:37:16.790Z,188.20
2018-03-06T00:39:44.331Z,202.70
2018-03-06T00:42:12.628Z,194.63
2018-03-06T00:44:40.169Z,214.93
2018-03-06T00:47:07.695Z,196.83
2018-03-06T00:49:35.238Z,202.73
2018-03-06T00:52:02.758Z,207.73
2018-03-06T00:54:30.278Z,205.20
2018-03-06T00:56:57.827Z,207.40
2018-03-06T00:59:25.355Z,202.07
2018-03-06T01:01:52.894Z,218.13
2018-03-06T01:04:20.422Z,214.90
2018-03-06T01:06:48.726Z,185.53
2018-03-06T01:09:16.255Z,185.00
2018-03-06T01:11:43.794Z,210.20
2018-03-06T01:14:11.318Z,221.83
2018-03-06T01:16:38.863Z,201.13
2018-03-06T01:19:06.390Z,194.40
2018-03-06T01:21:34.698Z,204.30
2018-03-06T01:24:02.223Z,204.33
2018-03-06T01:26:30.531Z,207.90
2018-03-06T01:28:58.054Z,232.60
2018-03-06T01:31:26.375Z,189.83
2018-03-06T01:33:53.906Z,213.40
2018-03-06T01:36:22.211Z,215.13
2018-03-06T01:38:49.731Z,188.63
2018-03-06T01:41:18.039Z,192.60
2018-03-06T01:43:45.558Z,206.43
2018-03-06T01:46:13.098Z,216.67
2018-03-06T01:48:40.855Z,196.80
2018-03-06T01:51:08.400Z,211.80
2018-03-06T01:53:35.926Z,208.67
2018-03-06T01:56:03.462Z,210.07
2018-03-06T01:58:30.982Z,202.13
2018-03-06T02:00:58.517Z,210.33
2018-03-06T02:03:26.034Z,218.73
2018-03-06T02:05:54.339Z,211.27
2018-03-06T02:08:21.894Z,222.37
2018-03-06T02:10:49.439Z,224.23
2018-03-06T02:13:17.725Z,209.70
2018-03-06T02:15:45.270Z,213.07
2018-03-06T02:18:13.562Z,207.07
2018-03-06T02:20:41.106Z,198.00
2018-03-06T02:23:09.394Z,211.07
2018-03-06T02:25:37.690Z,200.63
2018-03-06T02:28:05.218Z,220.97
2018-03-06T02:30:33.527Z,203.70
2018-03-06T02:33:01.056Z,226.80
2018-03-06T02:35:29.367Z,199.03
2018-03-06T02:37:56.894Z,226.97
2018-03-06T02:40:25.204Z,201.03
2018-03-06T02:42:52.726Z,199.53
2018-03-06T02:45:21.034Z,213.97
2018-03-06T02:47:48.558Z,211.83
2018-03-06T02:50:16.858Z,209.40
2018-03-06T02:52:44.382Z,221.10
2018-03-06T02:55:12.147Z,229.57
2018-03-06T02:57:39.687Z,213.60
2018-03-06T03:00:07.214Z,217.87
2018-03-06T03:02:34.759Z,216.77
2018-03-06T03:05:02.297Z,223.07
2018-03-06T03:07:30.596Z,200.33
2018-03-06T03:09:58.121Z,203.27
2018-03-06T03:12:26.430Z,220.70
2018-03-06T03:14:53.955Z,220.67
2018-03-06T03:17:22.264Z,212.53
2018-03-06T03:19:49.798Z,228.40
2018-03-06T03:22:18.116Z,247.80
2018-03-06T03:24:45.647Z,215.07
2018-03-06T03:27:13.190Z,217.57
2018-03-06T03:29:41.478Z,217.63
2018-03-06T03:32:09.023Z,203.53
2018-03-06T03:34:37.314Z,213.00
2018-03-06T03:37:05.614Z,203.63
2018-03-06T03:39:33.142Z,229.83
2018-03-06T03:42:01.460Z,218.87
2018-03-06T03:44:28.986Z,206.87
2018-03-06T03:46:56.526Z,238.50
2018-03-06T03:49:24.815Z,214.90
2018-03-06T03:51:53.122Z,224.20
2018-03-06T03:54:20.641Z,217.70
2018-03-06T03:56:48.964Z,203.63
2018-03-06T03:59:16.489Z,227.80
2018-03-06T04:01:44.015Z,238.03
2018-03-06T04:04:11.558Z,225.67
2018-03-06T04:06:39.083Z,211.97
2018-03-06T04:09:06.622Z,221.53
2018-03-06T04:11:34.906Z,219.33
2018-03-06T04:14:02.446Z,220.47
2018-03-06T04:16:30.734Z,216.67
2018-03-06T04:18:58.275Z,247.40
2018-03-06T04:21:25.786Z,224.40
2018-03-06T04:23:53.327Z,211.47
2018-03-06T04:26:20.851Z,208.57
2018-03-06T04:28:49.162Z,206.07
2018-03-06T04:31:16.682Z,211.30
2018-03-06T04:33:45.342Z,198.80
2018-03-06T04:36:13.673Z,223.20
2018-03-06T04:38:41.218Z,220.50
2018-03-06T04:41:09.743Z,211.97
2018-03-06T04:43:37.274Z,199.73
2018-03-06T04:46:04.803Z,229.40
2018-03-06T04:48:33.114Z,217.47
2018-03-06T04:51:00.630Z,213.63
2018-03-06T04:53:28.172Z,210.13
2018-03-06T04:55:55.694Z,234.17
2018-03-06T04:58:23.234Z,206.40
2018-03-06T05:00:50.757Z,221.83
2018-03-06T05:03:18.289Z,227.57
2018-03-06T05:05:45.833Z,219.53
2018-03-06T05:08:13.350Z,226.77
2018-03-06T05:10:41.659Z,223.97
2018-03-06T05:13:09.182Z,232.50
2018-03-06T05:15:37.490Z,224.43
2018-03-06T05:18:05.018Z,211.47
2018-03-06T05:20:33.322Z,205.27
2018-03-06T05:23:00.854Z,226.53
2018-03-06T05:25:29.161Z,221.97
2018-03-06T05:27:56.686Z,223.70
2018-03-06T05:30:25.000Z,235.70
2018-03-06T05:32:52.530Z,231.10
2018-03-06T05:35:20.839Z,212.37
2018-03-06T05:37:48.363Z,219.53
2018-03-06T05:40:16.662Z,220.80
2018-03-06T05:42:44.188Z,226.37
2018-03-06T05:45:11.729Z,225.10
2018-03-06T05:47:39.254Z,215.20
2018-03-06T05:50:06.819Z,238.97
2018-03-06T05:52:34.321Z,219.57
2018-03-06T05:55:01.859Z,237.43
2018-03-06T05:57:29.379Z,213.03
2018-03-06T05:59:57.250Z,242.97
2018-03-06T06:02:24.775Z,223.53
2018-03-06T06:04:53.918Z,216.93
2018-03-06T06:07:21.438Z,231.73
2018-03-06T06:09:49.722Z,243.97
2018-03-06T06:12:17.268Z,227.17
2018-03-06T06:14:45.554Z,241.93
2018-03-06T06:17:13.842Z,223.83
2018-03-06T06:19:42.114Z,212.87
2018-03-06T06:22:10.411Z,224.83
2018-03-06T06:24:37.935Z,233.03
2018-03-06T06:27:05.458Z,234.23
2018-03-06T06:29:32.982Z,231.40
2018-03-06T06:32:00.510Z,250.02
2018-03-06T06:34:28.782Z,252.17
2018-03-06T06:36:56.306Z,214.67
2018-03-06T06:39:23.813Z,227.30
2018-03-06T06:41:52.101Z,233.67
2018-03-06T06:44:19.611Z,219.30
2018-03-06T06:46:47.142Z,208.33
2018-03-06T06:49:14.662Z,219.83
2018-03-06T06:51:42.950Z,240.03
2018-03-06T06:54:10.463Z,210.87
2018-03-06T06:56:37.986Z,221.23
2018-03-06T06:59:05.726Z,205.10
2018-03-06T07:01:34.004Z,213.03
2018-03-06T07:04:02.281Z,230.10
2018-03-06T07:06:29.811Z,204.50
2018-03-06T07:08:57.324Z,200.73
2018-03-06T07:11:24.831Z,217.07
2018-03-06T07:13:52.356Z,214.97
2018-03-06T07:16:19.858Z,227.37
2018-03-06T07:18:48.143Z,203.53
2018-03-06T07:21:16.453Z,207.93
2018-03-06T07:23:44.000Z,197.53
2018-03-06T07:26:12.227Z,215.30
2018-03-06T07:28:39.746Z,214.97
2018-03-06T07:31:07.247Z,207.93
2018-03-06T07:33:34.771Z,192.80
2018-03-06T07:36:02.275Z,204.03
2018-03-06T07:38:30.562Z,197.03
2018-03-06T07:40:58.837Z,211.00
2018-03-06T07:43:27.122Z,214.03
2018-03-06T07:45:54.992Z,191.70
2018-03-06T07:48:22.511Z,215.50
2018-03-06T07:50:50.018Z,211.00
2018-03-06T07:53:17.542Z,223.07
2018-03-06T07:55:45.823Z,197.60
2018-03-06T07:58:14.102Z,197.13
2018-03-06T08:00:42.366Z,196.57
2018-03-06T08:03:10.646Z,204.83
2018-03-06T08:05:38.910Z,180.97
2018-03-06T08:08:06.426Z,202.70
2018-03-06T08:10:33.930Z,203.73
2018-03-06T08:13:01.454Z,189.77
2018-03-06T08:15:28.963Z,203.33
2018-03-06T08:17:57.237Z,197.80
2018-03-06T08:20:25.506Z,196.17
2018-03-06T08:22:53.791Z,206.93
2018-03-06T08:25:22.058Z,206.77
2018-03-06T08:27:50.347Z,198.60
2018-03-06T08:30:17.898Z,221.10
2018-03-06T08:32:45.387Z,201.70
2018-03-06T08:35:12.893Z,195.87
2018-03-06T08:37:40.436Z,193.30
2018-03-06T08:40:07.942Z,198.23
2018-03-06T08:42:35.463Z,216.73
2018-03-06T08:45:02.971Z,210.90
2018-03-06T08:47:30.494Z,239.40
2018-03-06T08:49:58.778Z,214.70
2018-03-06T08:52:27.074Z,237.43
2018-03-06T08:54:54.582Z,213.40
2018-03-06T08:57:22.078Z,238.43
2018-03-06T08:59:50.366Z,207.60
2018-03-06T09:02:17.870Z,215.37
2018-03-06T09:04:45.382Z,214.17
2018-03-06T09:07:12.887Z,217.60
2018-03-06T09:09:40.406Z,203.17
2018-03-06T09:12:07.938Z,208.73
2018-03-06T09:14:36.210Z,213.10
2018-03-06T09:17:04.477Z,227.83
2018-03-06T09:19:31.991Z,205.90
2018-03-06T09:21:59.495Z,219.10
2018-03-06T09:24:27.795Z,224.33
2018-03-06T09:26:55.311Z,231.57
2018-03-06T09:29:22.830Z,228.40
2018-03-06T09:31:50.334Z,220.00
2018-03-06T09:34:18.171Z,209.37
2018-03-06T09:36:45.691Z,217.53
2018-03-06T09:39:13.233Z,210.87
2018-03-06T09:41:41.503Z,200.90
2018-03-06T09:44:09.766Z,196.27
2018-03-06T09:46:37.286Z,200.03
2018-03-06T09:49:04.791Z,214.87
2018-03-06T09:51:33.090Z,227.10
2018-03-06T09:54:01.368Z,211.93
2018-03-06T09:56:28.894Z,207.17
2018-03-06T09:58:56.395Z,222.73
2018-03-06T10:01:23.922Z,215.93
2018-03-06T10:06:19.710Z,224.47
2018-03-06T10:08:47.211Z,211.87
2018-03-06T10:11:14.733Z,214.77
2018-03-06T10:13:42.274Z,200.80
2018-03-06T10:16:10.032Z,208.93
2018-03-06T10:18:37.543Z,221.30
2018-03-06T10:21:05.069Z,198.83
2018-03-06T10:23:32.571Z,195.43
2018-03-06T10:26:00.843Z,215.20
2018-03-06T10:28:29.126Z,198.23
2018-03-06T10:30:57.395Z,214.60
2018-03-06T10:33:25.683Z,198.13
2018-03-06T10:35:53.950Z,202.83
2018-03-06T10:38:22.234Z,207.53
2018-03-06T10:40:50.506Z,213.80
2018-03-06T10:43:18.795Z,197.83
2018-03-06T10:45:46.303Z,204.03
2018-03-06T10:48:13.828Z,189.50
2018-03-06T10:50:41.347Z,195.83
2018-03-06T10:53:08.866Z,210.80
2018-03-06T10:55:36.371Z,206.77
2018-03-06T10:58:04.664Z,214.33
2018-03-06T11:00:37.708Z,218.87
2018-03-06T11:03:05.231Z,212.67
2018-03-06T11:05:32.743Z,210.50
2018-03-06T11:08:00.270Z,226.73
2018-03-06T11:10:27.779Z,200.83
2018-03-06T11:12:55.307Z,210.83
2018-03-06T11:15:22.819Z,203.33
2018-03-06T11:17:50.343Z,227.23
2018-03-06T11:20:18.602Z,223.07
2018-03-06T11:22:46.118Z,237.53
2018-03-06T11:25:13.627Z,250.57
2018-03-06T11:27:41.126Z,226.67
2018-03-06T11:30:08.639Z,232.67
2018-03-06T11:32:36.143Z,229.57
2018-03-06T11:35:03.662Z,239.90
2018-03-06T11:37:31.930Z,233.87
2018-03-06T11:39:59.446Z,228.37
2018-03-06T11:42:26.945Z,225.43
2018-03-06T11:44:54.473Z,225.13
2018-03-06T11:47:21.986Z,261.93
2018-03-06T11:49:50.285Z,256.27
2018-03-06T11:52:18.051Z,256.07
2018-03-06T11:54:45.573Z,226.43
2018-03-06T11:57:13.842Z,235.00
2018-03-06T11:59:42.130Z,234.67
2018-03-06T12:02:10.398Z,238.93
2018-03-06T12:04:38.703Z,217.93
2018-03-06T12:07:06.206Z,247.53
2018-03-06T12:09:33.728Z,236.00
2018-03-06T12:12:01.227Z,234.80
2018-03-06T12:14:28.978Z,244.47
2018-03-06T12:16:56.481Z,230.60
2018-03-06T12:19:24.766Z,244.47
2018-03-06T12:21:52.278Z,242.57
2018-03-06T12:24:19.802Z,229.83
2018-03-06T12:26:47.538Z,235.00
2018-03-06T12:29:15.802Z,236.40
2018-03-06T12:31:44.091Z,227.73
2018-03-06T12:34:12.363Z,243.90
2018-03-06T12:36:40.704Z,225.23
2018-03-06T12:39:08.174Z,220.83
2018-03-06T12:41:35.696Z,216.10
2018-03-06T12:44:03.202Z,218.13
2018-03-06T12:46:31.494Z,221.30
2018-03-06T12:48:59.766Z,242.13
2018-03-06T12:51:28.046Z,206.60
2018-03-06T12:53:55.553Z,214.00
2018-03-06T12:56:23.074Z,223.60
2018-03-06T12:58:50.579Z,217.77
2018-03-06T13:01:18.100Z,211.90
2018-03-06T13:03:45.602Z,221.53
2018-03-06T13:06:13.122Z,233.50
2018-03-06T13:08:40.623Z,219.57
2018-03-06T13:11:08.142Z,198.33
2018-03-06T13:13:35.642Z,212.03
2018-03-06T13:16:03.167Z,233.03
2018-03-06T13:18:30.674Z,220.67
2018-03-06T13:20:58.961Z,231.00
2018-03-06T13:23:27.231Z,216.73
2018-03-06T13:25:55.517Z,215.93
2018-03-06T13:28:23.024Z,225.30
2018-03-06T13:30:50.566Z,236.70
2018-03-06T13:33:18.082Z,229.97
2018-03-06T13:35:46.356Z,230.27
2018-03-06T13:38:14.646Z,237.00
2018-03-06T13:40:42.154Z,232.23
2018-03-06T13:43:09.670Z,223.10
2018-03-06T13:45:37.175Z,240.50
2018-03-06T13:48:04.711Z,236.83
2018-03-06T13:50:32.218Z,228.73
2018-03-06T13:53:00.514Z,245.50
2018-03-06T13:55:28.023Z,229.27
2018-03-06T13:57:55.547Z,228.47
2018-03-06T14:00:23.042Z,226.37
2018-03-06T14:02:50.565Z,221.03
2018-03-06T14:05:18.071Z,220.90
2018-03-06T14:07:45.594Z,230.13
2018-03-06T14:10:13.102Z,227.33
2018-03-06T14:12:41.391Z,218.57
2018-03-06T14:15:08.891Z,228.00
2018-03-06T14:17:36.410Z,232.87
2018-03-06T14:20:03.914Z,213.50
2018-03-06T14:22:31.433Z,237.80
2018-03-06T14:24:58.930Z,228.80
2018-03-06T14:27:26.456Z,211.30
2018-03-06T14:29:53.959Z,257.73
2018-03-06T14:32:21.478Z,208.13
2018-03-06T14:34:48.974Z,221.43
2018-03-06T14:37:16.500Z,222.07
2018-03-06T14:39:44.017Z,198.03
2018-03-06T14:42:12.286Z,200.10
2018-03-06T14:44:40.578Z,194.87
2018-03-06T14:47:08.848Z,196.00
2018-03-06T14:49:37.134Z,210.67
2018-03-06T14:52:04.634Z,209.90
2018-03-06T14:54:32.163Z,188.60
2018-03-06T14:56:59.666Z,181.17
2018-03-06T14:59:27.201Z,182.77
2018-03-06T15:01:54.711Z,172.57
2018-03-06T15:04:22.999Z,184.60
2018-03-06T15:06:51.266Z,170.90
2018-03-06T15:09:19.786Z,188.17
2018-03-06T15:11:47.290Z,176.53
2018-03-06T15:14:14.806Z,182.53
2018-03-06T15:16:42.307Z,171.33
2018-03-06T15:19:09.830Z,181.90
2018-03-06T15:21:37.338Z,161.57
2018-03-06T15:24:05.623Z,163.30
2018-03-06T15:26:33.127Z,175.77
2018-03-06T15:29:00.658Z,162.23
2018-03-06T15:31:28.167Z,171.43
2018-03-06T15:33:55.694Z,188.87
2018-03-06T15:36:23.203Z,220.93
2018-03-06T15:38:50.739Z,227.17
2018-03-06T15:41:18.250Z,234.30
2018-03-06T15:43:45.774Z,250.67
2018-03-06T15:46:14.043Z,248.53
2018-03-06T15:48:41.558Z,208.53
2018-03-06T15:51:09.061Z,197.10
2018-03-06T15:53:37.346Z,185.07
2018-03-06T15:56:05.611Z,192.63
2018-03-06T15:58:33.898Z,184.93
2018-03-06T16:01:02.170Z,193.40
2018-03-06T16:03:30.466Z,175.10
2018-03-06T16:05:57.974Z,192.03
2018-03-06T16:08:25.496Z,187.83
2018-03-06T16:10:52.994Z,216.10
2018-03-06T16:13:20.510Z,217.60
2018-03-06T16:15:48.020Z,217.47
2018-03-06T16:18:15.538Z,200.03
2018-03-06T16:20:43.039Z,222.00
2018-03-06T16:23:10.558Z,233.97
2018-03-06T16:25:38.059Z,211.77
2018-03-06T16:28:06.346Z,224.07
2018-03-06T16:30:34.851Z,234.53
2018-03-06T16:33:02.373Z,217.70
2018-03-06T16:35:29.874Z,223.07
2018-03-06T16:37:57.375Z,222.67
2018-03-06T16:40:24.894Z,209.00
2018-03-06T16:42:52.399Z,221.63
2018-03-06T16:45:19.914Z,230.57
2018-03-06T16:47:47.427Z,254.47
2018-03-06T16:50:15.714Z,202.97
2018-03-06T16:52:43.986Z,207.27
2018-03-06T16:55:12.270Z,188.83
2018-03-06T16:57:40.541Z,208.63
2018-03-06T17:00:08.823Z,202.33
2018-03-06T17:02:36.328Z,190.20
2018-03-06T17:05:03.862Z,210.03
2018-03-06T17:07:31.369Z,186.03
2018-03-06T17:09:58.894Z,198.17
2018-03-06T17:12:26.393Z,174.77
2018-03-06T17:14:53.914Z,204.67
2018-03-06T17:17:21.426Z,246.70
2018-03-06T17:19:48.950Z,249.97
2018-03-06T17:22:16.446Z,234.53
2018-03-06T17:24:44.731Z,236.00
2018-03-06T17:27:12.239Z,221.37
2018-03-06T17:29:39.760Z,217.60
2018-03-06T17:32:07.497Z,245.03
2018-03-06T17:34:35.035Z,260.20
2018-03-06T17:37:02.541Z,227.40
2018-03-06T17:39:30.067Z,208.80
2018-03-06T17:41:58.333Z,220.70
2018-03-06T17:44:26.618Z,200.20
2018-03-06T17:46:54.887Z,199.47
2018-03-06T17:49:23.171Z,174.40
2018-03-06T17:51:51.440Z,172.13
2018-03-06T17:54:19.723Z,161.00
2018-03-06T17:56:47.993Z,167.83
2018-03-06T17:59:16.278Z,151.77
2018-03-06T18:01:44.550Z,161.53
2018-03-06T18:04:12.835Z,136.43
2018-03-06T18:06:41.103Z,127.30
2018-03-06T18:09:09.398Z,138.77
2018-03-06T18:11:36.906Z,150.93
2018-03-06T18:14:04.426Z,134.77
2018-03-06T18:16:31.926Z,118.40
2018-03-06T18:18:59.447Z,137.60
2018-03-06T18:21:26.951Z,127.47
2018-03-06T18:23:54.470Z,97.47
2018-03-06T18:26:21.975Z,104.63
2018-03-06T18:28:50.262Z,106.53
2018-03-06T18:31:18.527Z,89.63
2018-03-06T18:33:46.814Z,82.07
2018-03-06T18:36:15.075Z,76.37
2018-03-06T18:38:43.363Z,77.07
2018-03-06T18:41:11.627Z,69.97
2018-03-06T18:43:39.907Z,73.43
2018-03-06T18:46:08.191Z,69.67
2018-03-06T18:48:36.458Z,68.20
2018-03-06T18:51:10.504Z,74.37
2018-03-06T18:53:38.006Z,67.87
2018-03-06T18:56:05.526Z,72.23
2018-03-06T18:58:33.030Z,65.80
2018-03-06T19:04:28.092Z,76.10
2018-03-06T19:07:08.509Z,68.50
2018-03-06T19:09:36.035Z,70.57
2018-03-06T19:12:03.530Z,59.10
2018-03-06T19:14:31.027Z,62.23
2018-03-06T19:16:58.555Z,66.80
2018-03-06T19:19:26.855Z,76.70
2018-03-06T19:21:54.374Z,71.30
2018-03-06T19:24:21.882Z,68.43
2018-03-06T19:26:49.398Z,63.03
2018-03-06T19:29:17.667Z,66.20
2018-03-06T19:31:45.185Z,76.93
2018-03-06T19:34:12.688Z,64.60
2018-03-06T19:36:40.218Z,65.10
2018-03-06T19:39:07.728Z,65.67
2018-03-06T19:41:36.020Z,71.20
2018-03-06T19:44:03.522Z,66.33
2018-03-06T19:46:31.038Z,70.20
2018-03-06T19:48:58.542Z,65.17
2018-03-06T19:51:26.064Z,73.87
2018-03-06T19:53:53.571Z,65.97
2018-03-06T19:56:21.090Z,72.03
2018-03-06T19:58:48.586Z,71.60
2018-03-06T20:01:16.107Z,78.27
2018-03-06T20:03:43.610Z,115.90
2018-03-06T20:06:11.134Z,94.73
2018-03-06T20:08:38.637Z,92.00
2018-03-06T20:11:06.928Z,134.97
2018-03-06T20:13:34.436Z,148.33
2018-03-06T20:16:01.956Z,116.03
2018-03-06T20:18:29.458Z,81.50
2018-03-06T20:20:56.974Z,68.57
2018-03-06T20:23:24.483Z,57.47
2018-03-06T20:25:57.651Z,67.53
2018-03-06T20:28:25.150Z,64.97
2018-03-06T20:30:59.031Z,72.63
2018-03-06T20:33:26.530Z,69.43
2018-03-06T20:35:54.062Z,68.23
2018-03-06T20:38:27.262Z,62.83
2018-03-06T20:40:55.557Z,81.40
2018-03-06T20:43:23.088Z,112.90
2018-03-06T20:45:56.989Z,138.40
2018-03-06T20:48:24.512Z,80.67
2018-03-06T20:50:52.043Z,84.90
2018-03-06T20:53:25.290Z,72.73
2018-03-06T20:55:52.802Z,69.90
2018-03-06T20:58:20.335Z,79.70
2018-03-06T21:00:48.607Z,108.43
2018-03-06T21:03:16.889Z,95.40
2018-03-06T21:05:45.167Z,68.43
2018-03-06T21:08:13.454Z,76.43
2018-03-06T21:10:40.964Z,79.80
2018-03-06T21:13:08.483Z,77.87
2018-03-06T21:15:35.982Z,82.20
2018-03-06T21:18:03.518Z,75.67
2018-03-06T21:20:31.039Z,70.63
2018-03-06T21:22:59.326Z,69.10
2018-03-06T21:25:26.826Z,78.30
2018-03-06T21:27:54.348Z,83.93
2018-03-06T21:30:21.879Z,88.23
2018-03-06T21:32:50.164Z,81.23
2018-03-06T21:35:18.438Z,73.37
2018-03-06T21:37:46.719Z,69.50
2018-03-06T21:40:15.100Z,66.30
2018-03-06T21:42:42.681Z,59.27
2018-03-06T21:45:10.228Z,59.50
2018-03-06T21:47:37.778Z,62.60
2018-03-06T21:50:09.893Z,61.30
2018-03-06T21:52:42.009Z,64.43
2018-03-06T21:55:09.617Z,54.30
2018-03-06T21:57:37.954Z,69.37
2018-03-06T22:00:05.456Z,59.07
2018-03-06T22:02:33.751Z,62.13
2018-03-06T22:05:01.257Z,62.40
2018-03-06T22:07:28.758Z,59.37
2018-03-06T22:09:56.278Z,61.97
2018-03-06T22:12:23.774Z,69.77
2018-03-06T22:14:51.294Z,69.17
2018-03-06T22:17:18.799Z,62.07
2018-03-06T22:19:46.323Z,61.20
2018-03-06T22:22:13.827Z,63.50
2018-03-06T22:24:42.119Z,58.87
2018-03-06T22:27:10.387Z,62.53
2018-03-06T22:29:38.670Z,65.00
2018-03-06T22:32:06.950Z,67.53
2018-03-06T22:34:34.463Z,63.10
2018-03-06T22:37:02.726Z,64.63
2018-03-06T22:39:30.238Z,68.87
2018-03-06T22:41:58.498Z,66.00
2018-03-06T22:44:26.778Z,70.30
2018-03-06T22:46:55.060Z,61.60
2018-03-06T22:49:23.343Z,65.60
2018-03-06T22:51:51.632Z,71.70
2018-03-06T22:54:19.136Z,67.27
2018-03-06T22:56:46.658Z,57.27
2018-03-06T22:59:14.158Z,64.70
2018-03-06T23:01:41.676Z,65.60
2018-03-06T23:04:09.174Z,59.70
2018-03-06T23:06:36.686Z,63.17
2018-03-06T23:09:04.191Z,60.27
2018-03-06T23:11:31.716Z,62.03
2018-03-06T23:13:59.210Z,68.03
2018-03-06T23:16:26.747Z,60.57
2018-03-06T23:18:54.252Z,65.20
2018-03-06T23:21:22.537Z,60.07
2018-03-06T23:23:50.042Z,67.70
2018-03-06T23:26:17.563Z,64.20
2018-03-06T23:28:45.068Z,65.77
2018-03-06T23:31:12.586Z,67.00
2018-03-06T23:33:40.090Z,64.10
2018-03-06T23:36:07.606Z,65.30
2018-03-06T23:38:35.098Z,57.20
2018-03-06T23:41:02.614Z,58.87
2018-03-06T23:43:30.132Z,69.00
2018-03-06T23:45:58.434Z,55.50
2018-03-06T23:48:25.934Z,51.70
2018-03-06T23:50:53.446Z,65.70
2018-03-06T23:53:21.716Z,64.03
2018-03-06T23:55:50.008Z,62.23
2018-03-06T23:58:17.515Z,58.33
